createdAt,value
2023-03-15T00:02:13.983Z,1.73
2023-03-15T00:04:42.435Z,2.87
2023-03-15T00:07:11.299Z,2.60
2023-03-15T00:09:39.855Z,2.83
2023-03-15T00:12:08.934Z,6.43
2023-03-15T00:14:38.765Z,2.30
2023-03-15T00:17:08.799Z,2.40
2023-03-15T00:19:37.521Z,1.57
2023-03-15T00:22:06.613Z,5.70
2023-03-15T00:24:35.449Z,12.43
2023-03-15T00:27:04.255Z,7.70
2023-03-15T00:29:33.181Z,1.40
2023-03-15T00:32:02.137Z,1.63
2023-03-15T00:34:34.059Z,2.10
2023-03-15T00:37:02.626Z,2.77
2023-03-15T00:39:31.495Z,6.63
2023-03-15T00:42:00.489Z,5.43
2023-03-15T00:44:29.384Z,4.70
2023-03-15T00:47:04.292Z,1.50
2023-03-15T00:49:34.658Z,4.97
2023-03-15T00:52:04.030Z,1.73
2023-03-15T00:54:36.475Z,4.03
2023-03-15T00:57:07.533Z,4.73
2023-03-15T00:59:36.997Z,1.97
2023-03-15T01:02:07.585Z,12.03
2023-03-15T01:04:40.030Z,7.93
2023-03-15T01:07:09.176Z,5.80
2023-03-15T01:09:39.890Z,8.70
2023-03-15T01:12:09.247Z,4.10
2023-03-15T01:14:44.651Z,4.87
2023-03-15T01:17:14.369Z,3.23
2023-03-15T01:19:44.786Z,6.20
2023-03-15T01:22:14.112Z,4.40
2023-03-15T01:24:45.403Z,1.70
2023-03-15T01:27:14.392Z,2.83
2023-03-15T01:29:43.073Z,8.10
2023-03-15T01:32:14.649Z,2.73
2023-03-15T01:34:45.523Z,2.00
2023-03-15T01:37:14.735Z,13.00
2023-03-15T01:39:46.128Z,4.23
2023-03-15T01:42:14.450Z,2.27
2023-03-15T01:44:55.359Z,4.40
2023-03-15T01:47:26.063Z,2.20
2023-03-15T01:50:01.817Z,8.87
2023-03-15T01:52:35.202Z,5.47
2023-03-15T01:55:10.206Z,2.67
2023-03-15T01:57:45.886Z,5.03
2023-03-15T02:00:17.147Z,11.60
2023-03-15T02:03:00.892Z,4.63
2023-03-15T02:05:37.985Z,3.40
2023-03-15T02:08:12.158Z,9.00
2023-03-15T02:10:45.516Z,3.93
2023-03-15T02:13:17.248Z,6.53
2023-03-15T02:15:47.167Z,4.60
2023-03-15T02:18:22.875Z,2.03
2023-03-15T02:21:01.621Z,5.07
2023-03-15T02:23:32.088Z,3.90
2023-03-15T02:26:10.163Z,1.53
2023-03-15T02:28:41.400Z,3.90
2023-03-15T02:31:09.929Z,0.90
2023-03-15T02:33:43.338Z,6.77
2023-03-15T02:36:16.386Z,10.03
2023-03-15T02:38:44.913Z,3.13
2023-03-15T02:41:13.887Z,1.67
2023-03-15T02:43:44.459Z,1.97
2023-03-15T02:46:13.660Z,4.57
2023-03-15T02:48:44.266Z,2.00
2023-03-15T02:51:22.250Z,1.40
2023-03-15T02:53:52.727Z,1.30
2023-03-15T02:56:21.765Z,1.93
2023-03-15T02:58:54.863Z,5.07
2023-03-15T03:01:23.869Z,3.17
2023-03-15T03:03:55.750Z,2.90
2023-03-15T03:06:24.394Z,3.27
2023-03-15T03:08:56.414Z,10.30
2023-03-15T03:11:25.518Z,1.60
2023-03-15T03:13:58.336Z,4.90
2023-03-15T03:16:26.964Z,9.03
2023-03-15T03:18:55.368Z,2.17
2023-03-15T03:21:24.376Z,3.77
2023-03-15T03:23:55.038Z,9.40
2023-03-15T03:26:28.086Z,1.50
2023-03-15T03:28:58.849Z,12.83
2023-03-15T03:31:30.161Z,5.10
2023-03-15T03:33:58.798Z,5.50
2023-03-15T03:36:28.707Z,2.07
2023-03-15T03:38:59.571Z,4.07
2023-03-15T03:41:30.849Z,2.10
2023-03-15T03:44:02.163Z,8.93
2023-03-15T03:46:31.260Z,2.23
2023-03-15T03:48:59.566Z,1.47
2023-03-15T03:51:28.885Z,1.37
2023-03-15T03:53:58.956Z,1.97
2023-03-15T03:56:28.040Z,4.60
2023-03-15T03:59:00.441Z,5.17
2023-03-15T04:01:44.920Z,1.80
2023-03-15T04:04:14.358Z,1.70
2023-03-15T04:06:46.031Z,4.37
2023-03-15T04:09:18.204Z,2.83
2023-03-15T04:11:50.989Z,1.37
2023-03-15T04:14:21.685Z,13.90
2023-03-15T04:16:52.043Z,8.57
2023-03-15T04:19:22.084Z,1.00
2023-03-15T04:21:52.871Z,2.60
2023-03-15T04:24:28.709Z,6.53
2023-03-15T04:27:08.410Z,1.30
2023-03-15T04:29:56.717Z,1.73
2023-03-15T04:33:04.112Z,0.80
2023-03-15T04:35:46.085Z,2.20
2023-03-15T04:38:33.114Z,1.37
2023-03-15T04:41:21.209Z,2.93
2023-03-15T04:44:02.847Z,3.13
2023-03-15T04:46:48.112Z,1.60
2023-03-15T04:49:31.981Z,0.90
2023-03-15T04:52:26.680Z,1.20
2023-03-15T04:55:26.648Z,1.50
2023-03-15T04:58:30.861Z,2.80
2023-03-15T05:01:02.617Z,2.03
2023-03-15T05:03:56.356Z,6.00
2023-03-15T05:06:51.082Z,1.23
2023-03-15T05:09:51.624Z,3.43
2023-03-15T05:12:35.230Z,6.27
2023-03-15T05:15:22.964Z,7.03
2023-03-15T05:18:00.555Z,1.67
2023-03-15T05:20:48.579Z,2.83
2023-03-15T05:23:33.002Z,1.30
2023-03-15T05:26:04.800Z,2.73
2023-03-15T05:28:52.504Z,1.10
2023-03-15T05:31:53.909Z,3.90
2023-03-15T05:34:56.450Z,7.53
2023-03-15T05:37:58.227Z,1.10
2023-03-15T05:40:39.885Z,0.90
2023-03-15T05:43:37.095Z,2.20
2023-03-15T05:46:42.057Z,4.30
2023-03-15T05:49:40.620Z,1.97
2023-03-15T05:52:47.075Z,1.20
2023-03-15T05:55:37.377Z,1.53
2023-03-15T05:58:33.900Z,2.33
2023-03-15T06:01:23.134Z,3.90
2023-03-15T06:04:23.873Z,0.60
2023-03-15T06:06:56.074Z,0.50
2023-03-15T06:09:29.614Z,0.60
2023-03-15T06:12:10.074Z,0.60
2023-03-15T06:14:45.145Z,0.90
2023-03-15T06:17:15.853Z,0.60
2023-03-15T06:19:46.211Z,0.60
2023-03-15T06:22:31.862Z,1.83
2023-03-15T06:25:04.721Z,0.60
2023-03-15T06:27:38.527Z,1.03
2023-03-15T06:30:09.015Z,0.60
2023-03-15T06:32:38.647Z,0.60
2023-03-15T06:35:09.084Z,0.60
2023-03-15T06:37:42.029Z,2.00
2023-03-15T06:40:16.553Z,1.10
2023-03-15T06:42:49.273Z,0.60
2023-03-15T06:45:23.077Z,0.60
2023-03-15T06:47:52.782Z,0.60
2023-03-15T06:50:24.056Z,0.60
2023-03-15T06:52:54.960Z,0.60
2023-03-15T06:56:05.406Z,4.20
2023-03-15T06:58:38.700Z,0.60
2023-03-15T07:01:08.665Z,0.60
2023-03-15T07:03:37.411Z,0.87
2023-03-15T07:06:06.700Z,0.50
2023-03-15T07:08:35.494Z,0.90
2023-03-15T07:11:07.811Z,0.60
2023-03-15T07:13:37.869Z,0.60
2023-03-15T07:16:07.132Z,0.60
2023-03-15T07:18:38.634Z,0.57
2023-03-15T07:21:14.149Z,0.60
2023-03-15T07:23:44.680Z,0.60
2023-03-15T07:26:14.192Z,0.60
2023-03-15T07:28:46.186Z,0.60
2023-03-15T07:31:15.279Z,0.60
2023-03-15T07:33:56.632Z,0.63
2023-03-15T07:36:38.173Z,0.60
2023-03-15T07:39:09.049Z,0.67
2023-03-15T07:41:46.886Z,0.60
2023-03-15T07:44:25.997Z,0.60
2023-03-15T07:47:00.980Z,0.60
2023-03-15T07:49:32.196Z,0.97
2023-03-15T07:52:00.636Z,0.60
2023-03-15T07:54:34.798Z,0.60
2023-03-15T07:57:14.225Z,0.83
2023-03-15T07:59:50.393Z,0.60
2023-03-15T08:02:22.463Z,0.60
2023-03-15T08:04:55.048Z,0.60
2023-03-15T08:07:24.539Z,10.80
2023-03-15T08:09:58.157Z,1.23
2023-03-15T08:12:30.559Z,0.80
2023-03-15T08:15:06.004Z,0.80
2023-03-15T08:17:38.660Z,0.60
2023-03-15T08:20:15.415Z,0.50
2023-03-15T08:22:48.894Z,0.60
2023-03-15T08:25:23.614Z,16.13
2023-03-15T08:27:53.343Z,0.80
2023-03-15T08:30:27.583Z,1.07
2023-03-15T08:33:02.022Z,0.60
2023-03-15T08:35:34.447Z,0.60
2023-03-15T08:38:17.334Z,0.60
2023-03-15T08:40:54.426Z,0.60
2023-03-15T08:43:27.506Z,0.60
2023-03-15T08:46:08.553Z,1.00
2023-03-15T08:48:47.438Z,0.80
2023-03-15T08:51:23.927Z,1.90
2023-03-15T08:53:58.049Z,0.73
2023-03-15T08:56:28.064Z,2.20
2023-03-15T08:58:56.656Z,0.60
2023-03-15T09:01:26.446Z,0.70
2023-03-15T09:04:03.897Z,0.80
2023-03-15T09:06:46.470Z,1.30
2023-03-15T09:09:25.966Z,0.60
2023-03-15T09:15:00.314Z,1.07
2023-03-15T09:17:32.392Z,0.60
2023-03-15T09:20:09.638Z,0.60
2023-03-15T09:22:46.842Z,0.60
2023-03-15T09:25:20.251Z,0.60
2023-03-15T09:27:49.833Z,0.60
2023-03-15T09:30:28.792Z,0.60
2023-03-15T09:33:05.741Z,0.60
2023-03-15T09:36:01.475Z,0.60
2023-03-15T09:38:37.386Z,0.60
2023-03-15T09:41:12.198Z,0.60
2023-03-15T09:44:05.485Z,0.60
2023-03-15T09:46:51.865Z,0.60
2023-03-15T09:49:49.119Z,0.60
2023-03-15T09:52:38.013Z,0.50
2023-03-15T09:55:29.324Z,0.50
2023-03-15T09:58:07.192Z,0.50
2023-03-15T10:00:50.098Z,0.50
2023-03-15T10:03:33.755Z,0.60
2023-03-15T10:06:22.327Z,1.27
2023-03-15T10:09:00.915Z,0.50
2023-03-15T10:11:40.365Z,2.50
2023-03-15T10:14:25.808Z,1.33
2023-03-15T10:16:56.918Z,0.60
2023-03-15T10:19:42.072Z,1.90
2023-03-15T10:22:22.952Z,0.50
2023-03-15T10:25:04.152Z,1.90
2023-03-15T10:28:06.208Z,1.63
2023-03-15T10:37:45.945Z,6.63
2023-03-15T11:47:24.744Z,0.50
2023-03-15T11:50:18.600Z,0.97
2023-03-15T11:52:51.484Z,0.60
2023-03-15T11:55:24.779Z,0.50
2023-03-15T11:57:58.495Z,0.60
2023-03-15T14:10:41.608Z,4.90
2023-03-15T14:13:44.301Z,3.00
2023-03-15T14:17:01.193Z,3.33
2023-03-15T14:19:41.918Z,3.47
2023-03-15T14:22:23.760Z,2.70
2023-03-15T14:25:03.805Z,2.27
2023-03-15T14:27:49.407Z,2.70
2023-03-15T14:30:34.555Z,3.63
2023-03-15T14:33:17.068Z,2.63
2023-03-15T14:35:46.744Z,2.70
2023-03-15T14:38:22.853Z,4.63
2023-03-15T14:40:58.842Z,2.67
2023-03-15T14:46:57.144Z,2.93
2023-03-15T14:49:43.511Z,2.73
2023-03-15T14:52:17.923Z,1.93
2023-03-15T14:55:05.568Z,2.80
2023-03-15T14:57:42.852Z,2.47
2023-03-15T15:00:23.758Z,3.57
2023-03-15T15:03:01.000Z,1.80
2023-03-15T15:05:37.678Z,3.60
2023-03-15T15:08:16.622Z,3.30
2023-03-15T15:11:11.020Z,1.67
2023-03-15T15:14:01.809Z,1.60
2023-03-15T15:20:54.489Z,2.73
2023-03-15T15:29:00.065Z,1.83
2023-03-15T15:44:40.908Z,1.70
2023-03-15T15:51:41.234Z,4.10
2023-03-15T17:05:19.366Z,12.47
2023-03-15T17:08:32.882Z,11.43
2023-03-15T17:11:04.444Z,13.50
2023-03-15T17:17:52.571Z,13.37
2023-03-15T17:20:51.640Z,14.20
2023-03-15T17:23:51.677Z,13.17
2023-03-15T17:26:26.881Z,12.83
2023-03-15T17:29:40.369Z,12.17
2023-03-15T17:32:20.241Z,12.90
2023-03-15T17:35:01.277Z,13.13
2023-03-15T18:02:18.084Z,17.37
2023-03-15T18:20:28.132Z,16.00
2023-03-15T18:33:43.900Z,14.80
2023-03-15T18:39:43.244Z,16.93
2023-03-15T18:47:48.501Z,15.97
2023-03-15T18:50:26.588Z,16.10
2023-03-15T18:55:57.227Z,17.37
2023-03-15T18:58:37.436Z,15.90
2023-03-15T19:01:10.343Z,36.17
2023-03-15T19:03:59.188Z,12.27
2023-03-15T19:06:34.229Z,25.90
2023-03-15T19:09:09.991Z,29.17
2023-03-15T19:11:42.437Z,25.70
2023-03-15T19:14:31.228Z,30.23
2023-03-15T19:17:02.105Z,33.90
2023-03-15T19:19:54.769Z,49.07
2023-03-15T19:22:58.856Z,37.30
2023-03-15T19:25:32.744Z,22.73
2023-03-15T19:28:15.345Z,19.60
2023-03-15T19:30:51.980Z,24.93
2023-03-15T19:33:47.450Z,17.00
2023-03-15T19:36:21.095Z,17.83
2023-03-15T19:39:17.056Z,17.67
2023-03-15T19:41:53.651Z,17.90
2023-03-15T19:44:33.982Z,17.53
2023-03-15T19:47:05.847Z,19.00
2023-03-15T19:49:49.587Z,19.20
2023-03-15T19:52:27.084Z,19.27
2023-03-15T19:55:01.415Z,17.90
2023-03-15T19:57:43.164Z,20.07
2023-03-15T20:03:45.066Z,20.23
2023-03-15T20:06:30.271Z,18.47
2023-03-15T20:09:13.034Z,17.63
2023-03-15T20:11:56.313Z,20.87
2023-03-15T20:15:03.445Z,20.60
2023-03-15T20:17:45.330Z,16.80
2023-03-15T20:20:22.214Z,19.90
2023-03-15T20:22:59.806Z,18.00
2023-03-15T20:25:31.651Z,20.53
2023-03-15T20:28:01.416Z,19.77
2023-03-15T20:30:47.645Z,17.90
2023-03-15T20:33:38.793Z,17.20
2023-03-15T20:36:24.637Z,18.30
2023-03-15T20:39:21.367Z,19.33
2023-03-15T20:41:54.612Z,17.70
2023-03-15T20:44:43.059Z,17.63
2023-03-15T20:47:34.175Z,17.90
2023-03-15T20:50:05.887Z,18.70
2023-03-15T20:52:36.545Z,17.37
2023-03-15T20:55:11.600Z,18.17
2023-03-15T20:57:42.282Z,19.30
2023-03-15T21:00:18.628Z,18.13
2023-03-15T21:02:48.823Z,18.33
2023-03-15T21:05:25.789Z,17.90
2023-03-15T21:07:56.731Z,17.33
2023-03-15T21:10:32.710Z,18.63
2023-03-15T21:13:09.903Z,19.00
2023-03-15T21:15:45.994Z,18.73
2023-03-15T21:18:16.059Z,18.57
2023-03-15T21:20:49.471Z,18.53
2023-03-15T21:23:19.093Z,19.77
2023-03-15T21:25:56.495Z,19.40
2023-03-15T21:28:25.824Z,18.43
2023-03-15T21:30:55.523Z,19.47
2023-03-15T21:33:25.832Z,19.47
2023-03-15T21:36:02.268Z,22.00
2023-03-15T21:38:35.502Z,19.83
2023-03-15T21:41:09.823Z,21.43
2023-03-15T21:43:41.646Z,17.70
2023-03-15T21:46:15.338Z,21.80
2023-03-15T21:48:45.677Z,22.03
2023-03-15T21:51:16.438Z,18.57
2023-03-15T21:53:46.773Z,18.83
2023-03-15T21:56:17.876Z,16.63
2023-03-15T21:58:46.510Z,17.87
2023-03-15T22:01:15.289Z,16.57
2023-03-15T22:03:44.844Z,17.03
2023-03-15T22:06:19.013Z,17.67
2023-03-15T22:08:50.300Z,18.83
2023-03-15T22:11:20.350Z,15.83
2023-03-15T22:13:50.089Z,17.27
2023-03-15T22:16:19.594Z,20.43
2023-03-15T22:18:48.669Z,16.50
2023-03-15T22:21:18.353Z,17.67
2023-03-15T22:23:48.675Z,16.73
2023-03-15T22:26:17.858Z,17.07
2023-03-15T22:28:48.397Z,18.10
2023-03-15T22:31:17.362Z,17.20
2023-03-15T22:33:46.858Z,16.50
2023-03-15T22:36:17.465Z,16.10
2023-03-15T22:38:50.149Z,16.80
2023-03-15T22:41:21.011Z,18.70
2023-03-15T22:43:52.756Z,17.97
2023-03-15T22:46:24.058Z,17.37
2023-03-15T22:48:57.589Z,18.77
2023-03-15T22:51:28.949Z,18.67
2023-03-15T22:53:57.464Z,19.27
2023-03-15T22:56:30.104Z,17.00
2023-03-15T22:58:58.960Z,19.03
2023-03-15T23:01:27.713Z,18.40
2023-03-15T23:03:56.358Z,17.83
2023-03-15T23:06:25.719Z,17.73
2023-03-15T23:08:54.456Z,17.67
2023-03-15T23:11:23.175Z,18.33
2023-03-15T23:13:53.389Z,18.67
2023-03-15T23:16:23.636Z,19.23
2023-03-15T23:18:52.094Z,18.43
2023-03-15T23:21:20.519Z,17.80
2023-03-15T23:23:48.835Z,16.90
2023-03-15T23:26:19.608Z,18.57
2023-03-15T23:28:48.394Z,19.73
2023-03-15T23:31:18.673Z,19.50
2023-03-15T23:33:48.267Z,18.00
2023-03-15T23:36:17.131Z,19.17
2023-03-15T23:38:53.461Z,18.67
2023-03-15T23:41:21.825Z,19.37
2023-03-15T23:43:50.422Z,17.70
2023-03-15T23:46:20.512Z,17.70
2023-03-15T23:48:49.048Z,17.13
2023-03-15T23:51:17.859Z,15.97
2023-03-15T23:53:49.277Z,16.30
2023-03-15T23:56:17.868Z,17.23
2023-03-15T23:58:46.255Z,15.63
